LJMB/MBX METAR and TAF weather

Enter ICAO airport designator
Station Type Date Time Source
LJMB METAR 2022/08/16 19:30 UTC NOAA

LJMB 161930Z 28003KT CAVOK 22/16 Q1012


Station Type Date Time Source
LJMB Decoded METAR 2022/08/16 19:30 UTC NOAA

Maribor / Slivnica, Slovenia (LJMB) 46-29N 015-41E 265M
Aug 16, 2022 - 03:30 PM EDT / 2022.08.16 1930 UTC
Wind: from the W (280 degrees) at 3 MPH (3 KT):0
Visibility: greater than 7 mile(s):0
Temperature: 71 F (22 C)
Dew Point: 60 F (16 C)
Relative Humidity: 68%
Pressure (altimeter): 29.88 in. Hg (1012 hPa)
ob: LJMB 161930Z 28003KT CAVOK 22/16 Q1012
cycle: 19

Station Type Date Time Source
LJMB TAF 2022/08/16 18:05 UTC NOAA

TAF LJMB 161700Z 1618/1718 17005KT CAVOK
BECMG 1710/1712 19012KT

Example: see airport list